Time;durP1;ratioP1;P1;durP2;ratioP2;P2;SDS_P1;SDS_P2;PMS_P1;PMS_P2;Temp;Humidity;BMP_temperature;BMP_pressure;BME280_temperature;BME280_humidity;BME280_pressure;Samples;Min_cycle;Max_cycle;Signal;HPM_P1;HPM_P2
2024/04/04 00:02:16;;;;;;;0.65;0.25;;;;;;;;;;5007559;27;58434;-75
2024/04/04 00:04:41;;;;;;;0.20;0.20;;;;;;;;;;5007167;28;59353;-75
2024/04/04 00:07:06;;;;;;;0.10;0.10;;;;;;;;;;5021819;28;58391;-75
2024/04/04 00:09:31;;;;;;;0.20;0.20;;;;;;;;;;5004497;28;58989;-76
2024/04/04 00:11:56;;;;;;;0.25;0.22;;;;;;;;;;5006635;28;58420;-75
2024/04/04 00:14:21;;;;;;;0.20;0.20;;;;;;;;;;5004946;28;58431;-75
2024/04/04 00:16:47;;;;;;;0.20;0.20;;;;;;;;;;5007183;28;58446;-76
2024/04/04 00:19:12;;;;;;;0.10;0.10;;;;;;;;;;5006042;28;58481;-76
2024/04/04 00:21:37;;;;;;;0.23;0.20;;;;;;;;;;5005743;28;58448;-75
2024/04/04 00:24:02;;;;;;;0.30;0.30;;;;;;;;;;5005451;28;58398;-76
2024/04/04 00:26:27;;;;;;;0.40;0.30;;;;;;;;;;5005333;28;58514;-76
2024/04/04 00:28:53;;;;;;;0.40;0.33;;;;;;;;;;5004105;28;59397;-75
2024/04/04 00:31:19;;;;;;;0.40;0.30;;;;;;;;;;5007969;28;60443;-76
2024/04/04 00:33:45;;;;;;;0.25;0.20;;;;;;;;;;5005573;28;58469;-75
2024/04/04 00:36:10;;;;;;;0.13;0.13;;;;;;;;;;5003685;28;59350;-75
2024/04/04 00:38:35;;;;;;;0.43;0.15;;;;;;;;;;5006886;28;59081;-75
2024/04/04 00:41:01;;;;;;;0.20;0.20;;;;;;;;;;5007803;28;58347;-75
2024/04/04 00:43:26;;;;;;;0.35;0.35;;;;;;;;;;5005171;28;59194;-76
2024/04/04 00:45:51;;;;;;;1.30;0.30;;;;;;;;;;5005328;28;58720;-75
2024/04/04 00:48:17;;;;;;;0.10;0.10;;;;;;;;;;5005774;28;58424;-75
2024/04/04 00:50:42;;;;;;;0.13;0.13;;;;;;;;;;5005342;28;58697;-76
2024/04/04 00:53:07;;;;;;;0.47;0.20;;;;;;;;;;5007838;28;58041;-76
2024/04/04 00:55:33;;;;;;;0.20;0.20;;;;;;;;;;5006477;28;59526;-75
2024/04/04 00:57:58;;;;;;;0.35;0.35;;;;;;;;;;5005528;28;58725;-76
2024/04/04 01:00:24;;;;;;;0.97;0.17;;;;;;;;;;5005177;28;58559;-75
2024/04/04 01:02:50;;;;;;;0.20;0.20;;;;;;;;;;5004425;28;59349;-76
2024/04/04 01:05:15;;;;;;;0.15;0.15;;;;;;;;;;5005787;28;58586;-76
2024/04/04 01:07:41;;;;;;;0.30;0.30;;;;;;;;;;5007125;28;58399;-75
2024/04/04 01:10:07;;;;;;;0.40;0.20;;;;;;;;;;5006548;28;58681;-76
2024/04/04 01:12:32;;;;;;;0.38;0.30;;;;;;;;;;5005690;28;58435;-76
2024/04/04 01:14:57;;;;;;;0.47;0.10;;;;;;;;;;5003816;28;58742;-76
2024/04/04 01:17:22;;;;;;;0.30;0.30;;;;;;;;;;4994530;28;58735;-76
2024/04/04 01:19:48;;;;;;;0.33;0.20;;;;;;;;;;4995573;28;58424;-76
2024/04/04 01:22:13;;;;;;;1.83;0.52;;;;;;;;;;4989213;28;60090;-76
2024/04/04 01:24:38;;;;;;;0.63;0.53;;;;;;;;;;4992987;28;58963;-76
2024/04/04 01:27:04;;;;;;;0.20;0.20;;;;;;;;;;5001532;28;58389;-76
2024/04/04 01:29:29;;;;;;;0.35;0.35;;;;;;;;;;5009189;28;58506;-76
2024/04/04 01:31:54;;;;;;;0.40;0.20;;;;;;;;;;4996417;28;58290;-76
2024/04/04 01:34:20;;;;;;;0.40;0.40;;;;;;;;;;5007979;28;60381;-76
2024/04/04 01:36:45;;;;;;;0.40;0.40;;;;;;;;;;5009256;28;59372;-76
2024/04/04 01:39:10;;;;;;;0.20;0.20;;;;;;;;;;5009730;27;58324;-76
2024/04/04 01:41:35;;;;;;;0.20;0.20;;;;;;;;;;5009358;28;58474;-76
2024/04/04 01:44:00;;;;;;;0.20;0.20;;;;;;;;;;5009700;28;59636;-76
2024/04/04 01:46:25;;;;;;;0.10;0.10;;;;;;;;;;5010761;28;58431;-73
2024/04/04 01:48:50;;;;;;;0.73;0.33;;;;;;;;;;5010707;28;58415;-76
2024/04/04 01:51:16;;;;;;;0.30;0.30;;;;;;;;;;5009233;28;59223;-76
2024/04/04 01:53:41;;;;;;;0.32;0.30;;;;;;;;;;5010786;28;59229;-76
2024/04/04 01:56:06;;;;;;;0.10;0.10;;;;;;;;;;5011416;28;58403;-76
2024/04/04 01:58:31;;;;;;;0.17;0.17;;;;;;;;;;5010200;28;58553;-76
2024/04/04 02:00:56;;;;;;;0.10;0.10;;;;;;;;;;5010968;28;59312;-75
2024/04/04 02:03:21;;;;;;;1.00;0.38;;;;;;;;;;5010314;28;59023;-75
2024/04/04 02:05:46;;;;;;;0.43;0.20;;;;;;;;;;5008852;28;58444;-76
2024/04/04 02:08:12;;;;;;;0.50;0.30;;;;;;;;;;5008879;28;60150;-76
2024/04/04 02:10:37;;;;;;;0.70;0.32;;;;;;;;;;5006864;28;58854;-75
2024/04/04 02:13:03;;;;;;;0.10;0.10;;;;;;;;;;5009673;28;58494;-76
2024/04/04 02:15:28;;;;;;;1.17;0.32;;;;;;;;;;5005666;28;59042;-76
2024/04/04 02:17:53;;;;;;;0.40;0.10;;;;;;;;;;5007396;28;58077;-76
2024/04/04 02:20:19;;;;;;;0.70;0.20;;;;;;;;;;5008824;28;59569;-76
2024/04/04 02:22:44;;;;;;;0.35;0.35;;;;;;;;;;5008445;28;58839;-76
2024/04/04 02:25:10;;;;;;;0.15;0.15;;;;;;;;;;5008329;28;58329;-76
2024/04/04 02:27:35;;;;;;;0.35;0.35;;;;;;;;;;5008536;28;60412;-76
2024/04/04 02:30:01;;;;;;;0.37;0.20;;;;;;;;;;5006788;28;58697;-76
2024/04/04 02:32:27;;;;;;;0.50;0.20;;;;;;;;;;5009234;28;58424;-75
2024/04/04 02:34:53;;;;;;;0.63;0.50;;;;;;;;;;5011153;28;59537;-76
2024/04/04 02:37:18;;;;;;;0.40;0.32;;;;;;;;;;5007249;28;58357;-76
2024/04/04 02:39:43;;;;;;;0.30;0.20;;;;;;;;;;5008007;28;58623;-76
2024/04/04 02:42:08;;;;;;;0.35;0.35;;;;;;;;;;5006208;28;58670;-76
2024/04/04 02:44:34;;;;;;;0.20;0.20;;;;;;;;;;5007843;28;59184;-76
2024/04/04 02:46:59;;;;;;;0.10;0.10;;;;;;;;;;5009188;28;58563;-76
2024/04/04 02:49:24;;;;;;;0.40;0.17;;;;;;;;;;5006576;28;60598;-76
2024/04/04 02:51:49;;;;;;;0.17;0.17;;;;;;;;;;5007696;28;58403;-77
2024/04/04 02:54:14;;;;;;;0.40;0.40;;;;;;;;;;5007771;28;59418;-76
2024/04/04 02:56:39;;;;;;;0.17;0.17;;;;;;;;;;5006893;28;58414;-76
2024/04/04 02:59:05;;;;;;;0.40;0.40;;;;;;;;;;5007819;28;60289;-76
2024/04/04 03:01:30;;;;;;;0.93;0.30;;;;;;;;;;5004628;28;58765;-76
2024/04/04 03:03:55;;;;;;;0.45;0.20;;;;;;;;;;5007998;28;57882;-76
2024/04/04 03:06:20;;;;;;;0.93;0.30;;;;;;;;;;5007711;28;58006;-76
2024/04/04 03:08:45;;;;;;;0.20;0.15;;;;;;;;;;5005594;28;59169;-76
2024/04/04 03:11:11;;;;;;;0.60;0.57;;;;;;;;;;5006964;28;58498;-76
2024/04/04 03:13:36;;;;;;;1.00;0.50;;;;;;;;;;5007475;28;59445;-75
2024/04/04 03:16:01;;;;;;;0.15;0.15;;;;;;;;;;5008392;28;59294;-76
2024/04/04 03:18:27;;;;;;;0.67;0.23;;;;;;;;;;5006522;28;61161;-76
2024/04/04 03:20:52;;;;;;;0.30;0.30;;;;;;;;;;5006491;28;58829;-76
2024/04/04 03:23:17;;;;;;;0.28;0.28;;;;;;;;;;5008618;28;58478;-75
2024/04/04 03:25:42;;;;;;;0.40;0.30;;;;;;;;;;5007225;28;60752;-76
2024/04/04 03:28:07;;;;;;;0.50;0.43;;;;;;;;;;5006339;28;58391;-76
2024/04/04 03:30:33;;;;;;;0.30;0.20;;;;;;;;;;5006887;28;58336;-76
2024/04/04 03:32:58;;;;;;;0.10;0.10;;;;;;;;;;5006947;28;58427;-76
2024/04/04 03:35:24;;;;;;;0.47;0.47;;;;;;;;;;5006354;28;58779;-76
2024/04/04 03:37:50;;;;;;;0.32;0.30;;;;;;;;;;5008728;28;58446;-76
2024/04/04 03:40:15;;;;;;;0.28;0.20;;;;;;;;;;5005032;28;58880;-76
2024/04/04 03:42:40;;;;;;;0.20;0.20;;;;;;;;;;5007847;28;59017;-76
2024/04/04 03:45:06;;;;;;;0.20;0.20;;;;;;;;;;5005855;28;60102;-76
2024/04/04 03:47:34;;;;;;;0.35;0.20;;;;;;;;;;5005772;28;58644;-76
2024/04/04 03:50:01;;;;;;;0.90;0.30;;;;;;;;;;5005791;28;58382;-76
2024/04/04 03:52:26;;;;;;;0.30;0.10;;;;;;;;;;5006832;28;60580;-76
2024/04/04 03:54:51;;;;;;;0.20;0.20;;;;;;;;;;5003397;28;58730;-76
2024/04/04 03:57:16;;;;;;;0.20;0.20;;;;;;;;;;5007157;28;58493;-76
2024/04/04 03:59:42;;;;;;;0.65;0.47;;;;;;;;;;5004718;28;58653;-76
2024/04/04 04:02:07;;;;;;;0.20;0.20;;;;;;;;;;5008108;28;58656;-76
2024/04/04 04:04:32;;;;;;;1.45;0.35;;;;;;;;;;5006149;28;60056;-76
2024/04/04 04:06:57;;;;;;;0.75;0.28;;;;;;;;;;5004285;28;58392;-76
2024/04/04 04:09:22;;;;;;;0.22;0.20;;;;;;;;;;5006564;28;58327;-76
2024/04/04 04:11:48;;;;;;;0.55;0.20;;;;;;;;;;5006018;28;58389;-76
2024/04/04 04:14:14;;;;;;;0.35;0.20;;;;;;;;;;5005161;28;58757;-76
2024/04/04 04:16:39;;;;;;;0.35;0.30;;;;;;;;;;4986114;28;58249;-76
2024/04/04 04:19:04;;;;;;;0.20;0.13;;;;;;;;;;5001527;28;58403;-76
2024/04/04 04:21:29;;;;;;;0.27;0.27;;;;;;;;;;4995774;28;58557;-76
2024/04/04 04:23:57;;;;;;;0.10;0.10;;;;;;;;;;4991455;28;60576;-75
2024/04/04 04:26:22;;;;;;;0.20;0.20;;;;;;;;;;4994917;28;58809;-76
2024/04/04 04:28:47;;;;;;;0.47;0.20;;;;;;;;;;4992891;28;58383;-76
2024/04/04 04:31:29;;;;;;;0.30;0.30;;;;;;;;;;4995396;28;59365;-76
2024/04/04 04:33:55;;;;;;;0.75;0.30;;;;;;;;;;5000292;28;58455;-76
2024/04/04 04:36:22;;;;;;;0.20;0.20;;;;;;;;;;5000012;28;58510;-76
2024/04/04 04:38:47;;;;;;;0.43;0.27;;;;;;;;;;4998199;28;58518;-76
2024/04/04 04:41:13;;;;;;;0.33;0.33;;;;;;;;;;5007967;28;58869;-76
2024/04/04 04:43:38;;;;;;;0.77;0.40;;;;;;;;;;4995214;28;58379;-76
2024/04/04 04:46:05;;;;;;;0.20;0.20;;;;;;;;;;5003554;28;58991;-76
2024/04/04 04:48:30;;;;;;;0.20;0.20;;;;;;;;;;5000215;28;58137;-76
2024/04/04 04:50:55;;;;;;;0.25;0.22;;;;;;;;;;4998865;28;59159;-76
2024/04/04 04:53:20;;;;;;;0.30;0.30;;;;;;;;;;5005402;28;58385;-77
2024/04/04 04:55:49;;;;;;;0.70;0.53;;;;;;;;;;5006761;28;58478;-76
2024/04/04 04:58:14;;;;;;;0.43;0.20;;;;;;;;;;4994857;28;59217;-76
2024/04/04 05:00:39;;;;;;;0.73;0.37;;;;;;;;;;4992264;28;58901;-76
2024/04/04 05:03:05;;;;;;;0.22;0.22;;;;;;;;;;4997611;28;58417;-76
2024/04/04 05:05:30;;;;;;;1.52;0.38;;;;;;;;;;5005466;28;58378;-76
2024/04/04 05:07:55;;;;;;;1.33;0.20;;;;;;;;;;5021576;28;58393;-77
2024/04/04 05:10:20;;;;;;;0.30;0.30;;;;;;;;;;4995662;28;58387;-77
2024/04/04 05:12:45;;;;;;;1.00;0.35;;;;;;;;;;5003495;28;58537;-77
2024/04/04 05:15:10;;;;;;;0.50;0.30;;;;;;;;;;5005024;28;58364;-77
2024/04/04 05:17:36;;;;;;;0.52;0.43;;;;;;;;;;5004906;28;58816;-77
2024/04/04 05:20:01;;;;;;;3.00;0.68;;;;;;;;;;5005896;28;58644;-77
2024/04/04 05:22:27;;;;;;;0.53;0.40;;;;;;;;;;4992375;28;58367;-75
2024/04/04 05:24:52;;;;;;;1.27;0.40;;;;;;;;;;5001733;28;59364;-76
2024/04/04 05:27:17;;;;;;;0.70;0.55;;;;;;;;;;5004916;28;58502;-77
2024/04/04 05:29:43;;;;;;;2.20;0.40;;;;;;;;;;5002557;28;59470;-76
2024/04/04 05:32:08;;;;;;;1.85;1.00;;;;;;;;;;5006979;28;58486;-75
2024/04/04 05:34:33;;;;;;;3.13;0.57;;;;;;;;;;5007011;28;58584;-78
2024/04/04 05:36:58;;;;;;;4.43;1.53;;;;;;;;;;5004920;28;60248;-77
2024/04/04 05:39:23;;;;;;;1.25;1.15;;;;;;;;;;4999066;28;58216;-79
2024/04/04 05:41:49;;;;;;;3.17;0.85;;;;;;;;;;4998292;28;58473;-78
2024/04/04 05:44:14;;;;;;;2.37;1.60;;;;;;;;;;5005299;28;58945;-77
2024/04/04 05:46:40;;;;;;;4.13;1.45;;;;;;;;;;5005374;28;58997;-78
2024/04/04 05:49:05;;;;;;;3.43;1.10;;;;;;;;;;4998266;28;59336;-78
2024/04/04 05:51:30;;;;;;;3.83;1.15;;;;;;;;;;4997555;28;59605;-78
2024/04/04 05:53:55;;;;;;;2.63;0.65;;;;;;;;;;5005745;28;58375;-77
2024/04/04 05:56:20;;;;;;;4.30;0.73;;;;;;;;;;5004911;28;59527;-77
2024/04/04 05:58:45;;;;;;;2.03;0.98;;;;;;;;;;5006836;28;59576;-77
2024/04/04 06:01:11;;;;;;;1.77;0.80;;;;;;;;;;5007462;28;58323;-77
2024/04/04 06:03:36;;;;;;;3.00;0.60;;;;;;;;;;5006028;28;60373;-77
2024/04/04 06:06:01;;;;;;;2.70;0.60;;;;;;;;;;5004179;28;58417;-77
2024/04/04 06:08:27;;;;;;;4.67;1.23;;;;;;;;;;5005986;28;58029;-78
2024/04/04 06:10:52;;;;;;;1.20;0.82;;;;;;;;;;5006235;28;59147;-78
2024/04/04 06:13:17;;;;;;;4.80;0.82;;;;;;;;;;5009276;28;58453;-78
2024/04/04 06:15:51;;;;;;;4.03;0.77;;;;;;;;;;5008662;28;59315;-77
2024/04/04 06:18:16;;;;;;;2.03;0.80;;;;;;;;;;5005798;27;58397;-78
2024/04/04 06:20:41;;;;;;;3.33;0.90;;;;;;;;;;5004204;28;58419;-78
2024/04/04 06:23:06;;;;;;;3.93;1.30;;;;;;;;;;4988675;28;60217;-77
2024/04/04 06:25:31;;;;;;;1.80;0.93;;;;;;;;;;4996895;28;59683;-77
2024/04/04 06:27:56;;;;;;;1.60;0.73;;;;;;;;;;5005016;28;58268;-78
2024/04/04 06:30:22;;;;;;;3.50;0.90;;;;;;;;;;4998052;28;59228;-77
2024/04/04 06:32:47;;;;;;;1.53;0.77;;;;;;;;;;4992015;28;58484;-78
2024/04/04 06:35:12;;;;;;;1.43;0.87;;;;;;;;;;5008097;28;57964;-78
2024/04/04 06:37:37;;;;;;;0.93;0.50;;;;;;;;;;5006141;28;59125;-77
2024/04/04 06:40:02;;;;;;;0.63;0.40;;;;;;;;;;5007524;28;58634;-76
2024/04/04 06:42:28;;;;;;;2.45;0.65;;;;;;;;;;5020575;28;59963;-78
2024/04/04 06:44:53;;;;;;;1.43;0.87;;;;;;;;;;4998092;28;59183;-77
2024/04/04 06:47:18;;;;;;;0.77;0.40;;;;;;;;;;5009452;28;58453;-77
2024/04/04 06:49:43;;;;;;;0.90;0.67;;;;;;;;;;5007688;28;59173;-77
2024/04/04 06:52:08;;;;;;;0.80;0.80;;;;;;;;;;4998860;28;58850;-78
2024/04/04 06:54:33;;;;;;;3.03;0.50;;;;;;;;;;5001911;28;59928;-74
2024/04/04 06:56:58;;;;;;;1.77;0.40;;;;;;;;;;5006407;28;58585;-74
2024/04/04 06:59:24;;;;;;;0.77;0.50;;;;;;;;;;5007232;28;58363;-74
2024/04/04 07:01:49;;;;;;;1.27;0.45;;;;;;;;;;5009500;28;59316;-74
2024/04/04 07:04:14;;;;;;;1.43;0.80;;;;;;;;;;5007064;28;58992;-74
2024/04/04 07:06:40;;;;;;;1.33;0.63;;;;;;;;;;5003934;28;58120;-74
2024/04/04 07:09:06;;;;;;;0.98;0.50;;;;;;;;;;4996867;28;58694;-74
2024/04/04 07:11:32;;;;;;;1.02;0.95;;;;;;;;;;5007072;28;59170;-74
2024/04/04 07:13:57;;;;;;;0.97;0.60;;;;;;;;;;5009731;28;59420;-74
2024/04/04 07:16:22;;;;;;;1.75;0.40;;;;;;;;;;5008276;28;58593;-74
2024/04/04 07:18:47;;;;;;;1.50;0.40;;;;;;;;;;5006250;28;58557;-74
2024/04/04 07:21:12;;;;;;;0.90;0.40;;;;;;;;;;5007152;28;59718;-75
2024/04/04 07:23:37;;;;;;;0.47;0.33;;;;;;;;;;5005405;27;58932;-74
2024/04/04 07:26:03;;;;;;;0.57;0.47;;;;;;;;;;5008658;28;58454;-74
2024/04/04 07:28:28;;;;;;;1.17;0.43;;;;;;;;;;5008033;28;59442;-75
2024/04/04 07:30:53;;;;;;;0.70;0.40;;;;;;;;;;5006135;28;58969;-74
2024/04/04 07:33:18;;;;;;;0.63;0.60;;;;;;;;;;5008033;27;58487;-74
2024/04/04 07:35:43;;;;;;;1.10;0.80;;;;;;;;;;5005667;28;58724;-74
2024/04/04 07:38:09;;;;;;;2.33;0.40;;;;;;;;;;5007668;28;58309;-74
2024/04/04 07:40:35;;;;;;;0.20;0.20;;;;;;;;;;5008766;27;59876;-74
2024/04/04 07:43:01;;;;;;;1.27;0.47;;;;;;;;;;5006506;27;59714;-74
2024/04/04 07:45:26;;;;;;;1.17;0.70;;;;;;;;;;5006360;28;58327;-75
2024/04/04 07:47:51;;;;;;;1.30;0.70;;;;;;;;;;5006849;28;58750;-74
2024/04/04 07:50:16;;;;;;;0.40;0.37;;;;;;;;;;5005544;28;59012;-74
2024/04/04 07:52:42;;;;;;;1.57;0.90;;;;;;;;;;5007166;28;58471;-74
2024/04/04 07:55:07;;;;;;;0.77;0.50;;;;;;;;;;5006082;28;58288;-75
2024/04/04 07:57:32;;;;;;;1.27;0.40;;;;;;;;;;5007864;28;58388;-75
2024/04/04 07:59:57;;;;;;;0.47;0.45;;;;;;;;;;5005506;28;59416;-75
2024/04/04 08:02:23;;;;;;;0.47;0.43;;;;;;;;;;5005971;28;58438;-76
2024/04/04 08:04:48;;;;;;;1.17;0.52;;;;;;;;;;5007771;28;58283;-77
2024/04/04 08:07:14;;;;;;;0.40;0.40;;;;;;;;;;5006325;27;60742;-76
2024/04/04 08:09:40;;;;;;;0.55;0.55;;;;;;;;;;5005093;27;58580;-78
2024/04/04 08:12:05;;;;;;;2.25;0.40;;;;;;;;;;5006253;28;58524;-77
2024/04/04 08:14:31;;;;;;;0.45;0.25;;;;;;;;;;5005144;28;59464;-77
2024/04/04 08:16:57;;;;;;;0.45;0.43;;;;;;;;;;5008185;28;59211;-78
2024/04/04 08:19:22;;;;;;;0.40;0.30;;;;;;;;;;5003365;28;60381;-78
2024/04/04 08:21:47;;;;;;;1.00;0.50;;;;;;;;;;5005002;28;58781;-77
2024/04/04 08:24:13;;;;;;;0.35;0.20;;;;;;;;;;5007147;28;58441;-77
2024/04/04 08:26:38;;;;;;;2.10;1.00;;;;;;;;;;5006130;28;59543;-78
2024/04/04 08:29:04;;;;;;;1.77;0.20;;;;;;;;;;5006742;28;58595;-77
2024/04/04 08:31:29;;;;;;;2.53;0.60;;;;;;;;;;5005473;28;57725;-79
2024/04/04 08:33:54;;;;;;;0.30;0.30;;;;;;;;;;5005405;28;59744;-77
2024/04/04 08:36:19;;;;;;;0.53;0.53;;;;;;;;;;5005319;28;58800;-77
2024/04/04 08:38:44;;;;;;;0.73;0.40;;;;;;;;;;5008292;28;58383;-77
2024/04/04 08:41:10;;;;;;;0.75;0.30;;;;;;;;;;5006599;28;58702;-78
2024/04/04 08:43:35;;;;;;;0.57;0.47;;;;;;;;;;5004836;28;57918;-78
2024/04/04 08:46:02;;;;;;;1.08;0.40;;;;;;;;;;5005325;28;59744;-77
2024/04/04 08:48:27;;;;;;;0.90;0.30;;;;;;;;;;5004265;27;58515;-78
2024/04/04 08:50:53;;;;;;;0.67;0.30;;;;;;;;;;5005949;28;58532;-78
2024/04/04 08:53:22;;;;;;;0.30;0.30;;;;;;;;;;5005311;28;59561;-77
2024/04/04 08:55:47;;;;;;;0.75;0.35;;;;;;;;;;5006471;28;58920;-77
2024/04/04 08:58:13;;;;;;;0.98;0.47;;;;;;;;;;5006829;28;58381;-78
2024/04/04 09:00:39;;;;;;;0.35;0.35;;;;;;;;;;5005842;27;60350;-78
2024/04/04 09:03:04;;;;;;;0.30;0.20;;;;;;;;;;5005158;28;58507;-75
2024/04/04 09:05:30;;;;;;;1.83;0.37;;;;;;;;;;5005870;28;59378;-76
2024/04/04 09:07:55;;;;;;;0.43;0.30;;;;;;;;;;5005690;28;58768;-76
2024/04/04 09:10:21;;;;;;;0.25;0.20;;;;;;;;;;5005769;28;58409;-75
2024/04/04 09:12:46;;;;;;;0.38;0.38;;;;;;;;;;5006028;28;59222;-75
2024/04/04 09:15:11;;;;;;;0.57;0.50;;;;;;;;;;5006316;28;59420;-75
2024/04/04 09:17:36;;;;;;;0.40;0.40;;;;;;;;;;5006795;28;58358;-75
2024/04/04 09:20:02;;;;;;;1.20;0.30;;;;;;;;;;5007619;28;60273;-75
2024/04/04 09:22:27;;;;;;;0.40;0.40;;;;;;;;;;5005197;28;58441;-76
2024/04/04 09:24:59;;;;;;;0.40;0.30;;;;;;;;;;4999746;28;58847;-76
2024/04/04 09:27:24;;;;;;;0.20;0.20;;;;;;;;;;4996414;28;60014;-75
2024/04/04 09:29:50;;;;;;;0.57;0.30;;;;;;;;;;4994276;28;58800;-75
2024/04/04 09:32:17;;;;;;;0.30;0.30;;;;;;;;;;5006240;28;58438;-75
2024/04/04 09:34:42;;;;;;;1.23;0.90;;;;;;;;;;4994153;28;59037;-75
2024/04/04 09:37:14;;;;;;;0.30;0.30;;;;;;;;;;4997056;28;58390;-75
2024/04/04 09:39:42;;;;;;;0.38;0.38;;;;;;;;;;5001280;28;60427;-75
2024/04/04 09:42:08;;;;;;;0.30;0.30;;;;;;;;;;5005043;28;60066;-76
2024/04/04 09:44:34;;;;;;;0.20;0.20;;;;;;;;;;5003235;28;59808;-75
2024/04/04 09:46:59;;;;;;;0.10;0.10;;;;;;;;;;4997957;28;59777;-75
2024/04/04 09:49:26;;;;;;;0.95;0.50;;;;;;;;;;5010823;28;58445;-75
2024/04/04 09:51:53;;;;;;;0.28;0.15;;;;;;;;;;5002907;28;59432;-75
2024/04/04 09:54:19;;;;;;;0.20;0.20;;;;;;;;;;4996295;28;58996;-75
2024/04/04 09:56:44;;;;;;;0.43;0.43;;;;;;;;;;5000168;28;58402;-75
2024/04/04 09:59:09;;;;;;;0.30;0.22;;;;;;;;;;5010031;28;59567;-75
2024/04/04 10:01:35;;;;;;;0.30;0.20;;;;;;;;;;5009203;28;58895;-75
2024/04/04 10:04:00;;;;;;;0.38;0.38;;;;;;;;;;5010962;28;58367;-75
2024/04/04 10:06:29;;;;;;;0.53;0.20;;;;;;;;;;5007423;28;59070;-76
2024/04/04 10:08:56;;;;;;;0.20;0.20;;;;;;;;;;5007959;28;58165;-75
2024/04/04 10:11:28;;;;;;;0.20;0.20;;;;;;;;;;5008264;28;59576;-75
2024/04/04 10:13:53;;;;;;;0.22;0.13;;;;;;;;;;5007789;28;59479;-77
2024/04/04 10:16:38;;;;;;;0.40;0.40;;;;;;;;;;4992966;28;58550;-77
2024/04/04 10:19:08;;;;;;;0.98;0.52;;;;;;;;;;5002083;28;59722;-78
2024/04/04 10:21:33;;;;;;;0.30;0.30;;;;;;;;;;4996633;28;59054;-77
2024/04/04 10:24:00;;;;;;;0.20;0.20;;;;;;;;;;4991434;28;58419;-78
2024/04/04 10:26:25;;;;;;;0.20;0.20;;;;;;;;;;4994320;28;60223;-77
2024/04/04 10:28:50;;;;;;;0.20;0.20;;;;;;;;;;5010049;28;58415;-77
2024/04/04 10:31:15;;;;;;;0.23;0.23;;;;;;;;;;5001074;28;59400;-77
2024/04/04 10:33:40;;;;;;;0.30;0.30;;;;;;;;;;5002620;28;59769;-77
2024/04/04 10:36:07;;;;;;;0.17;0.17;;;;;;;;;;5010033;28;58446;-78
2024/04/04 10:38:34;;;;;;;0.30;0.30;;;;;;;;;;5005200;28;59722;-78
2024/04/04 10:40:59;;;;;;;0.23;0.23;;;;;;;;;;4999011;28;59164;-78
2024/04/04 10:43:24;;;;;;;0.38;0.38;;;;;;;;;;5005977;28;58450;-77
2024/04/04 10:45:50;;;;;;;0.17;0.17;;;;;;;;;;5007279;28;59462;-77
2024/04/04 10:48:15;;;;;;;0.17;0.10;;;;;;;;;;5010387;28;59000;-78
2024/04/04 10:50:40;;;;;;;0.20;0.20;;;;;;;;;;5007464;28;59096;-77
2024/04/04 10:53:05;;;;;;;0.67;0.40;;;;;;;;;;4993533;28;58708;-77
2024/04/04 10:55:31;;;;;;;0.73;0.30;;;;;;;;;;5007110;28;57965;-77
2024/04/04 10:57:57;;;;;;;0.30;0.30;;;;;;;;;;5007667;28;59452;-77
2024/04/04 11:00:26;;;;;;;0.10;0.10;;;;;;;;;;5005632;28;59045;-78
2024/04/04 11:02:52;;;;;;;1.80;0.30;;;;;;;;;;5006621;28;58408;-77
2024/04/04 11:05:17;;;;;;;0.63;0.20;;;;;;;;;;5008467;28;60301;-77
2024/04/04 11:07:43;;;;;;;0.13;0.13;;;;;;;;;;5038348;28;58898;-77
2024/04/04 11:10:10;;;;;;;0.10;0.10;;;;;;;;;;5009608;27;58442;-77
2024/04/04 11:12:36;;;;;;;1.17;0.20;;;;;;;;;;5006254;28;59059;-78
2024/04/04 11:15:01;;;;;;;0.38;0.20;;;;;;;;;;5008171;28;58424;-78
2024/04/04 11:17:26;;;;;;;0.17;0.13;;;;;;;;;;5006901;28;59472;-77
2024/04/04 11:20:08;;;;;;;0.27;0.27;;;;;;;;;;4995140;28;58983;-77
2024/04/04 11:22:36;;;;;;;0.10;0.10;;;;;;;;;;5004762;28;58446;-77
2024/04/04 11:25:05;;;;;;;0.17;0.17;;;;;;;;;;5000678;28;58506;-78
2024/04/04 11:27:31;;;;;;;0.13;0.10;;;;;;;;;;5015860;28;59410;-77
2024/04/04 11:29:56;;;;;;;0.30;0.20;;;;;;;;;;5005373;28;58185;-78
2024/04/04 11:32:21;;;;;;;0.20;0.20;;;;;;;;;;4997715;28;58678;-77
2024/04/04 11:34:46;;;;;;;0.30;0.30;;;;;;;;;;5007795;28;58590;-77
2024/04/04 11:37:12;;;;;;;0.20;0.20;;;;;;;;;;5008180;28;59616;-77
2024/04/04 11:39:37;;;;;;;1.38;0.30;;;;;;;;;;5005914;28;59326;-78
2024/04/04 11:42:03;;;;;;;0.23;0.23;;;;;;;;;;5007027;28;58308;-77
2024/04/04 11:44:28;;;;;;;1.33;0.27;;;;;;;;;;5006511;28;59441;-78
2024/04/04 11:46:53;;;;;;;0.30;0.13;;;;;;;;;;5006785;28;58437;-78
2024/04/04 11:49:18;;;;;;;0.43;0.20;;;;;;;;;;5006227;28;58280;-77
2024/04/04 11:51:44;;;;;;;0.20;0.20;;;;;;;;;;5007600;28;59367;-77
2024/04/04 11:54:09;;;;;;;0.40;0.40;;;;;;;;;;5006470;28;58427;-77
2024/04/04 11:56:34;;;;;;;0.20;0.20;;;;;;;;;;5004059;28;59754;-77
2024/04/04 11:59:00;;;;;;;0.20;0.20;;;;;;;;;;4985325;28;59141;-77
2024/04/04 12:01:25;;;;;;;1.00;0.82;;;;;;;;;;4994306;28;58362;-77
2024/04/04 12:03:50;;;;;;;0.20;0.20;;;;;;;;;;5003917;28;58501;-78
2024/04/04 12:06:16;;;;;;;0.20;0.20;;;;;;;;;;5005092;28;58778;-78
2024/04/04 12:08:41;;;;;;;0.20;0.10;;;;;;;;;;5004515;28;57949;-77
2024/04/04 12:11:09;;;;;;;0.20;0.20;;;;;;;;;;5008368;28;59306;-78
2024/04/04 12:13:34;;;;;;;0.20;0.20;;;;;;;;;;5005710;28;58993;-77
2024/04/04 12:15:59;;;;;;;0.75;0.30;;;;;;;;;;5005685;28;58713;-78
2024/04/04 12:21:14;;;;;;;0.25;0.25;;;;;;;;;;4991540;28;58455;-77
2024/04/04 12:23:39;;;;;;;0.00;0.00;;;;;;;;;;4988229;28;58508;-78
2024/04/04 12:26:04;;;;;;;0.20;0.17;;;;;;;;;;4991869;28;59589;-77
2024/04/04 12:28:29;;;;;;;1.10;0.70;;;;;;;;;;5003135;28;58374;-77
2024/04/04 12:30:55;;;;;;;0.60;0.30;;;;;;;;;;4991055;28;59471;-78
2024/04/04 12:33:20;;;;;;;0.20;0.20;;;;;;;;;;4993230;28;58368;-75
2024/04/04 12:35:45;;;;;;;0.40;0.20;;;;;;;;;;5006179;28;58354;-74
2024/04/04 12:38:10;;;;;;;0.30;0.30;;;;;;;;;;5005021;28;58060;-75
2024/04/04 12:40:35;;;;;;;0.65;0.22;;;;;;;;;;5005285;28;58785;-75
2024/04/04 12:43:00;;;;;;;0.10;0.10;;;;;;;;;;5005146;28;59525;-77
2024/04/04 12:45:25;;;;;;;0.40;0.40;;;;;;;;;;5003625;28;58620;-77
2024/04/04 12:47:51;;;;;;;0.45;0.45;;;;;;;;;;5005674;28;58249;-76
2024/04/04 12:50:16;;;;;;;0.30;0.30;;;;;;;;;;5004508;28;59419;-77
2024/04/04 12:52:41;;;;;;;0.25;0.20;;;;;;;;;;4991930;28;58850;-77
2024/04/04 12:55:07;;;;;;;0.10;0.10;;;;;;;;;;4994218;28;57891;-77
2024/04/04 12:57:33;;;;;;;0.75;0.20;;;;;;;;;;4988898;28;59640;-77
2024/04/04 12:59:58;;;;;;;0.40;0.20;;;;;;;;;;4991034;28;58355;-77
2024/04/04 13:02:23;;;;;;;0.40;0.40;;;;;;;;;;5006843;28;59248;-76
2024/04/04 13:04:48;;;;;;;0.10;0.10;;;;;;;;;;5020575;28;60070;-77
2024/04/04 13:07:13;;;;;;;1.10;0.30;;;;;;;;;;4998549;28;58358;-77
2024/04/04 13:09:38;;;;;;;0.32;0.28;;;;;;;;;;4994114;28;59173;-77
2024/04/04 13:12:04;;;;;;;0.43;0.30;;;;;;;;;;4998375;28;58798;-77
2024/04/04 13:14:29;;;;;;;0.30;0.30;;;;;;;;;;5008064;28;58418;-76
2024/04/04 13:16:56;;;;;;;0.20;0.20;;;;;;;;;;5009152;28;58504;-77
2024/04/04 13:19:21;;;;;;;0.43;0.40;;;;;;;;;;5006618;28;58491;-77
2024/04/04 13:21:47;;;;;;;1.13;0.47;;;;;;;;;;5009745;28;59480;-77
2024/04/04 13:24:12;;;;;;;0.57;0.40;;;;;;;;;;5010291;28;59211;-77
2024/04/04 13:26:37;;;;;;;1.00;0.30;;;;;;;;;;5010842;28;58356;-77
2024/04/04 13:29:02;;;;;;;0.98;0.20;;;;;;;;;;5012454;28;59165;-76
2024/04/04 13:31:28;;;;;;;0.63;0.17;;;;;;;;;;5006345;28;58498;-77
2024/04/04 13:33:53;;;;;;;0.73;0.20;;;;;;;;;;5009796;28;58301;-77
2024/04/04 13:36:18;;;;;;;0.38;0.20;;;;;;;;;;5009843;28;58467;-76
2024/04/04 13:38:44;;;;;;;0.30;0.30;;;;;;;;;;5009473;28;58386;-76
2024/04/04 13:41:09;;;;;;;0.50;0.38;;;;;;;;;;5009476;28;59460;-77
2024/04/04 13:43:34;;;;;;;0.23;0.23;;;;;;;;;;5007327;28;58643;-75
2024/04/04 13:45:59;;;;;;;0.70;0.30;;;;;;;;;;5008455;28;58325;-76
2024/04/04 13:48:25;;;;;;;1.90;0.30;;;;;;;;;;5008275;28;59444;-76
2024/04/04 13:50:50;;;;;;;3.20;0.50;;;;;;;;;;5006691;28;62908;-75
2024/04/04 13:53:15;;;;;;;0.52;0.20;;;;;;;;;;4996443;28;58371;-77
2024/04/04 13:55:41;;;;;;;0.33;0.20;;;;;;;;;;5000052;28;60985;-77
2024/04/04 13:58:06;;;;;;;1.27;0.77;;;;;;;;;;4989140;28;59088;-77
2024/04/04 14:00:31;;;;;;;1.42;0.40;;;;;;;;;;4992644;28;58513;-78
2024/04/04 14:02:56;;;;;;;1.45;0.52;;;;;;;;;;5000735;28;59728;-77
2024/04/04 14:05:21;;;;;;;0.40;0.40;;;;;;;;;;5008224;28;58245;-77
2024/04/04 14:07:46;;;;;;;0.77;0.27;;;;;;;;;;4994811;28;59319;-77
2024/04/04 14:10:12;;;;;;;0.30;0.20;;;;;;;;;;4996047;28;58787;-78
2024/04/04 14:12:37;;;;;;;0.30;0.30;;;;;;;;;;5003121;28;58596;-78
2024/04/04 14:15:02;;;;;;;0.38;0.20;;;;;;;;;;5008444;28;59618;-77
2024/04/04 14:17:27;;;;;;;1.20;0.73;;;;;;;;;;5008418;28;58905;-78
2024/04/04 14:19:52;;;;;;;0.40;0.20;;;;;;;;;;5009901;28;58653;-77
2024/04/04 14:22:17;;;;;;;0.40;0.27;;;;;;;;;;5009310;28;60209;-78
2024/04/04 14:24:43;;;;;;;0.97;0.30;;;;;;;;;;5005843;28;58268;-77
2024/04/04 14:27:08;;;;;;;0.75;0.50;;;;;;;;;;5008918;28;58726;-77
2024/04/04 14:29:34;;;;;;;1.87;0.20;;;;;;;;;;5004691;28;59834;-77
2024/04/04 14:32:00;;;;;;;1.85;0.28;;;;;;;;;;5007781;28;58242;-77
2024/04/04 14:34:26;;;;;;;0.85;0.50;;;;;;;;;;5005263;28;58482;-77
2024/04/04 14:36:51;;;;;;;0.40;0.17;;;;;;;;;;5007325;28;58831;-77